createdAt,value
2023-02-19T11:35:50.368Z,35.73
2023-02-19T11:36:01.341Z,35.34
2023-02-19T11:36:11.335Z,35.28
2023-02-19T11:36:21.325Z,35.32
2023-02-19T11:36:31.324Z,35.35
2023-02-19T11:36:41.334Z,35.39
2023-02-19T11:36:51.333Z,35.56
2023-02-19T11:37:01.334Z,35.96
2023-02-19T11:37:11.347Z,35.78
2023-02-19T11:37:21.320Z,35.81
2023-02-19T11:37:31.349Z,35.59
2023-02-19T11:37:41.337Z,35.31
2023-02-19T11:37:51.343Z,35.17
2023-02-19T11:38:01.363Z,35.14
2023-02-19T11:38:11.367Z,35.15
2023-02-19T11:38:21.342Z,35.15
2023-02-19T11:38:31.354Z,35.16
2023-02-19T11:38:41.354Z,35.13
2023-02-19T11:38:51.359Z,35.16
2023-02-19T11:39:24.546Z,35.49
2023-02-19T11:39:35.585Z,35.16
2023-02-19T11:39:45.602Z,35.10
2023-02-19T11:39:55.593Z,35.14
2023-02-19T11:40:05.587Z,35.27
2023-02-19T11:40:15.678Z,35.34
2023-02-19T11:40:25.598Z,35.30
2023-02-19T11:40:35.868Z,35.41
2023-02-19T11:40:45.580Z,36.61
2023-02-19T11:40:55.599Z,36.06
2023-02-19T11:41:05.605Z,35.59
2023-02-19T11:41:15.599Z,35.28
2023-02-19T11:41:25.586Z,35.15
2023-02-19T11:41:35.596Z,35.09
2023-02-19T12:15:08.346Z,36.81
2023-02-19T12:15:19.343Z,36.44
2023-02-19T12:22:42.320Z,36.39
2023-02-19T12:22:53.308Z,35.91
2023-02-19T12:23:03.320Z,35.79
2023-02-19T12:23:13.301Z,35.81
2023-02-19T12:23:23.310Z,35.83
2023-02-19T12:23:33.291Z,35.80
2023-02-19T12:23:43.329Z,35.81
2023-02-19T12:23:53.298Z,35.79
2023-02-19T12:24:03.308Z,35.75
2023-02-19T12:24:13.302Z,35.83
2023-02-19T12:24:23.324Z,36.17
2023-02-19T12:24:33.302Z,36.15
2023-02-19T12:24:43.315Z,36.03
2023-02-19T12:25:10.490Z,36.26
2023-02-19T12:25:21.502Z,35.75
2023-02-19T12:25:34.101Z,35.63
2023-02-19T12:25:41.522Z,35.81
2023-02-19T12:25:51.515Z,35.72
2023-02-19T12:26:01.516Z,35.69
2023-02-19T12:26:11.829Z,35.72
2023-02-19T12:26:21.550Z,35.75
2023-02-19T12:26:31.513Z,36.35
2023-02-19T12:26:41.506Z,37.61
2023-02-19T12:26:51.486Z,36.83
2023-02-19T12:27:01.502Z,36.39
2023-02-19T12:27:11.493Z,36.08
2023-02-19T12:27:21.497Z,35.91
2023-02-19T12:27:31.498Z,35.73
2023-02-19T12:27:41.510Z,35.65
2023-02-19T12:27:51.493Z,35.78
2023-02-19T12:28:01.502Z,35.73
2023-02-19T12:28:11.509Z,35.75
2023-02-19T12:28:21.497Z,35.76
2023-02-19T12:28:31.501Z,38.13
2023-02-19T12:28:41.499Z,36.89
2023-02-19T12:28:51.480Z,36.02
2023-02-19T12:29:01.502Z,35.63
2023-02-19T12:29:11.494Z,35.56
2023-02-19T12:29:21.477Z,35.73
2023-02-19T12:29:31.532Z,35.61
2023-02-19T12:29:41.488Z,35.50
2023-02-19T12:29:51.504Z,35.66
2023-02-19T12:30:01.561Z,36.42
2023-02-19T12:30:11.493Z,37.38
2023-02-19T12:30:21.520Z,36.02
2023-02-19T12:30:31.552Z,35.47
2023-02-19T12:30:41.571Z,35.21
2023-02-19T12:30:51.512Z,35.06
2023-02-19T12:31:01.492Z,35.06
2023-02-19T12:31:11.523Z,35.01
2023-02-19T12:31:21.698Z,34.97
2023-02-19T12:31:33.120Z,34.99
2023-02-19T12:31:41.517Z,35.07
2023-02-19T12:31:51.501Z,35.00
2023-02-19T12:32:01.511Z,35.06
2023-02-19T12:32:11.571Z,35.11
2023-02-19T12:32:21.489Z,35.09
2023-02-19T12:32:31.477Z,35.07
2023-02-19T12:32:41.481Z,35.09
2023-02-19T12:32:51.503Z,35.11
2023-02-19T12:33:01.486Z,35.14
2023-02-19T12:33:11.474Z,35.09
2023-02-19T12:33:21.481Z,35.09
2023-02-19T12:33:31.468Z,35.09
2023-02-19T12:33:41.475Z,35.10
2023-02-19T12:33:51.472Z,35.12
2023-02-19T12:34:01.466Z,35.10
2023-02-19T12:34:11.462Z,35.08
2023-02-19T12:34:21.477Z,35.09
2023-02-19T12:34:31.471Z,35.40
2023-02-19T12:34:41.496Z,35.34
2023-02-19T12:34:51.475Z,35.30
2023-02-19T12:35:01.480Z,35.32
2023-02-19T12:35:11.457Z,35.33
2023-02-19T12:35:21.468Z,35.30
2023-02-19T12:35:31.462Z,35.30
2023-02-19T12:35:41.459Z,35.28
2023-02-19T12:35:51.455Z,35.37
2023-02-19T12:36:01.470Z,35.38
2023-02-19T12:36:11.778Z,35.38
2023-02-19T12:36:21.468Z,35.37
2023-02-19T12:36:31.458Z,35.73
2023-02-19T12:36:41.453Z,35.69
2023-02-19T12:36:51.452Z,35.50
2023-02-19T12:37:01.463Z,35.44
2023-02-19T12:37:11.456Z,35.65
2023-02-19T12:37:21.461Z,35.44
2023-02-19T12:37:31.446Z,35.32
2023-02-19T12:37:41.466Z,35.31
2023-02-19T12:37:51.446Z,35.47
2023-02-19T12:38:01.449Z,35.70
2023-02-19T12:38:11.452Z,35.59
2023-02-19T12:38:21.454Z,35.72
2023-02-19T12:38:31.474Z,35.91
2023-02-19T12:38:41.457Z,35.76
2023-02-19T12:38:51.442Z,35.54
2023-02-19T12:39:01.453Z,35.48
2023-02-19T12:39:11.441Z,35.45
2023-02-19T12:39:21.442Z,35.73
2023-02-19T12:39:31.474Z,35.70
2023-02-19T12:39:41.427Z,35.63
2023-02-19T12:39:51.454Z,35.50
2023-02-19T12:40:01.437Z,35.57
2023-02-19T12:40:11.437Z,35.57
2023-02-19T12:40:21.427Z,35.61
2023-02-19T12:40:31.452Z,35.70
2023-02-19T12:40:41.421Z,35.63
2023-02-19T12:40:51.432Z,35.64
2023-02-19T12:41:01.440Z,35.73
2023-02-19T12:41:11.428Z,35.60
2023-02-19T12:41:21.426Z,35.63
2023-02-19T12:41:31.428Z,35.66
2023-02-19T12:41:41.416Z,35.64
2023-02-19T12:41:51.418Z,35.76
2023-02-19T12:42:01.426Z,35.69
2023-02-19T12:42:11.432Z,35.60
2023-02-19T12:42:21.414Z,35.60
2023-02-19T12:42:31.424Z,35.62
2023-02-19T12:42:41.414Z,35.65
2023-02-19T12:42:51.423Z,35.62
2023-02-19T12:43:01.401Z,35.85
2023-02-19T12:43:11.406Z,35.79
2023-02-19T12:43:21.405Z,35.77
2023-02-19T12:43:31.407Z,35.78
2023-02-19T12:43:41.418Z,35.86
2023-02-19T12:43:51.422Z,35.85
2023-02-19T12:44:01.407Z,36.02
2023-02-19T12:44:11.408Z,35.93
2023-02-19T12:44:21.398Z,36.00
2023-02-19T12:44:31.422Z,35.88
2023-02-19T12:44:41.392Z,35.96
2023-02-19T12:44:51.418Z,35.95
2023-02-19T12:45:01.392Z,35.93
2023-02-19T12:45:11.395Z,35.88
2023-02-19T13:00:41.813Z,38.21
2023-02-19T13:00:52.894Z,37.75
2023-02-19T13:01:02.901Z,37.61
2023-02-19T13:01:12.885Z,37.79
2023-02-19T13:01:22.914Z,37.80
2023-02-19T13:01:32.946Z,37.68
2023-02-19T13:01:42.881Z,37.59
2023-02-19T13:01:52.868Z,37.63
2023-02-19T13:02:02.894Z,37.74
2023-02-19T13:02:12.885Z,37.67
2023-02-19T13:02:22.934Z,37.69
2023-02-19T13:02:32.935Z,37.62
2023-02-19T13:02:42.896Z,37.56
2023-02-19T13:02:52.880Z,37.62
2023-02-19T13:03:02.877Z,37.60
2023-02-19T13:03:12.879Z,37.59
2023-02-19T13:03:22.893Z,37.62
2023-02-19T13:07:22.140Z,38.25
2023-02-19T13:07:33.189Z,37.80
2023-02-19T13:07:43.174Z,37.71
2023-02-19T13:07:53.186Z,37.68
2023-02-19T13:08:03.160Z,37.69
2023-02-19T13:08:13.173Z,37.68
2023-02-19T13:08:23.141Z,37.57
2023-02-19T13:08:34.171Z,37.55
2023-02-19T13:09:03.600Z,37.54
2023-02-19T13:09:09.806Z,37.64
2023-02-19T13:09:14.865Z,37.98
2023-02-19T13:09:24.922Z,37.72
2023-02-19T13:09:34.853Z,37.55
2023-02-19T13:09:44.846Z,37.54
2023-02-19T13:09:54.867Z,37.55
2023-02-19T13:10:04.847Z,37.57
2023-02-19T13:10:14.816Z,37.62
2023-02-19T13:10:24.828Z,37.68
2023-02-19T13:10:34.810Z,37.72
2023-02-19T13:10:44.852Z,37.75
2023-02-19T13:10:54.869Z,37.71
2023-02-19T13:11:04.813Z,37.65
2023-02-19T13:11:14.951Z,37.64
2023-02-19T13:11:24.866Z,37.60
2023-02-19T13:11:36.659Z,37.55
2023-02-19T13:11:44.801Z,37.65
2023-02-19T13:11:54.797Z,37.66
2023-02-19T13:12:04.790Z,37.60
2023-02-19T13:12:14.777Z,37.53
2023-02-19T13:12:24.794Z,37.57
2023-02-19T13:12:34.772Z,37.62
2023-02-19T13:12:44.765Z,37.61
2023-02-19T13:12:54.754Z,37.51
2023-02-19T13:13:04.746Z,37.41
2023-02-19T13:13:14.739Z,37.41
2023-02-19T13:13:24.945Z,37.45
2023-02-19T13:13:34.724Z,37.53
2023-02-19T13:13:44.728Z,37.61
2023-02-19T13:13:54.747Z,37.60
2023-02-19T13:14:04.707Z,37.61
2023-02-19T13:14:14.685Z,37.57
2023-02-19T13:14:24.689Z,37.53
2023-02-19T13:14:34.686Z,37.47
2023-02-19T13:14:44.678Z,37.50
2023-02-19T13:14:54.676Z,37.61
2023-02-19T13:15:04.662Z,37.59
2023-02-19T13:15:14.646Z,37.52
2023-02-19T13:15:24.656Z,37.53
2023-02-19T13:15:34.631Z,37.53
2023-02-19T13:15:44.636Z,37.64
2023-02-19T13:15:54.633Z,37.58
2023-02-19T13:16:04.626Z,37.49
2023-02-19T13:16:17.329Z,37.52
2023-02-19T13:16:24.626Z,37.73
2023-02-19T13:16:34.655Z,37.58
2023-02-19T13:16:44.591Z,37.53
2023-02-19T13:16:54.594Z,37.46
2023-02-19T13:17:04.633Z,37.47
2023-02-19T13:17:14.558Z,37.52
2023-02-19T13:17:24.557Z,37.60
2023-02-19T13:17:34.551Z,37.61
2023-02-19T13:17:44.551Z,37.79
2023-02-19T13:17:54.546Z,37.57
2023-02-19T13:18:04.522Z,37.50
2023-02-19T13:18:14.510Z,37.43
2023-02-19T13:18:24.511Z,37.41
2023-02-19T13:18:34.515Z,37.43
2023-02-19T13:18:44.496Z,37.36
2023-02-19T13:18:54.497Z,37.38
2023-02-19T13:19:04.489Z,37.44
2023-02-19T13:19:14.464Z,37.82
2023-02-19T13:19:24.480Z,37.90
2023-02-19T13:19:34.544Z,37.56
2023-02-19T13:19:44.464Z,37.46
2023-02-19T13:19:54.488Z,37.32
2023-02-19T13:20:04.436Z,37.28
2023-02-19T15:16:38.115Z,36.76
2023-02-19T15:17:55.943Z,36.79
2023-02-19T15:18:06.999Z,36.39
2023-02-19T15:18:16.995Z,36.18
2023-02-19T15:18:27.248Z,36.21
